sensor_id;sensor_type;location;lat;lon;timestamp;P1;durP1;ratioP1;P2;durP2;ratioP2
55913;SDS011;58179;48.776;9.124;2022-08-19T00:01:10;18.35;;;14.23;;
55913;SDS011;58179;48.776;9.124;2022-08-19T00:03:37;20.70;;;15.55;;
55913;SDS011;58179;48.776;9.124;2022-08-19T00:06:03;23.23;;;15.98;;
55913;SDS011;58179;48.776;9.124;2022-08-19T00:08:29;21.27;;;14.50;;
55913;SDS011;58179;48.776;9.124;2022-08-19T00:10:55;20.85;;;14.48;;
55913;SDS011;58179;48.776;9.124;2022-08-19T00:13:22;21.00;;;15.30;;
55913;SDS011;58179;48.776;9.124;2022-08-19T00:15:48;20.50;;;14.55;;
55913;SDS011;58179;48.776;9.124;2022-08-19T00:18:14;21.13;;;15.25;;
55913;SDS011;58179;48.776;9.124;2022-08-19T00:20:41;21.40;;;15.60;;
55913;SDS011;58179;48.776;9.124;2022-08-19T00:23:07;24.38;;;15.15;;
55913;SDS011;58179;48.776;9.124;2022-08-19T00:25:33;20.45;;;15.02;;
55913;SDS011;58179;48.776;9.124;2022-08-19T00:27:59;20.80;;;15.77;;
55913;SDS011;58179;48.776;9.124;2022-08-19T00:30:25;18.88;;;14.43;;
55913;SDS011;58179;48.776;9.124;2022-08-19T00:32:52;21.15;;;15.02;;
55913;SDS011;58179;48.776;9.124;2022-08-19T00:35:20;20.42;;;14.73;;
55913;SDS011;58179;48.776;9.124;2022-08-19T00:37:47;21.52;;;15.45;;
55913;SDS011;58179;48.776;9.124;2022-08-19T00:40:15;24.02;;;16.20;;
55913;SDS011;58179;48.776;9.124;2022-08-19T00:42:42;22.37;;;15.20;;
55913;SDS011;58179;48.776;9.124;2022-08-19T00:45:11;19.83;;;14.90;;
55913;SDS011;58179;48.776;9.124;2022-08-19T00:47:40;20.00;;;14.80;;
55913;SDS011;58179;48.776;9.124;2022-08-19T00:50:06;21.25;;;15.55;;
55913;SDS011;58179;48.776;9.124;2022-08-19T00:52:35;22.90;;;15.15;;
55913;SDS011;58179;48.776;9.124;2022-08-19T00:55:07;22.13;;;16.20;;
55913;SDS011;58179;48.776;9.124;2022-08-19T00:57:37;23.60;;;15.80;;
55913;SDS011;58179;48.776;9.124;2022-08-19T01:00:06;22.23;;;15.95;;
55913;SDS011;58179;48.776;9.124;2022-08-19T01:02:37;19.60;;;15.15;;
55913;SDS011;58179;48.776;9.124;2022-08-19T01:05:05;20.50;;;15.45;;
55913;SDS011;58179;48.776;9.124;2022-08-19T01:07:36;22.80;;;16.05;;
55913;SDS011;58179;48.776;9.124;2022-08-19T01:10:06;20.65;;;15.40;;
55913;SDS011;58179;48.776;9.124;2022-08-19T01:12:37;21.15;;;15.85;;
55913;SDS011;58179;48.776;9.124;2022-08-19T01:15:05;19.77;;;15.25;;
55913;SDS011;58179;48.776;9.124;2022-08-19T01:17:34;20.38;;;15.40;;
55913;SDS011;58179;48.776;9.124;2022-08-19T01:20:04;19.73;;;14.85;;
55913;SDS011;58179;48.776;9.124;2022-08-19T01:22:35;26.17;;;16.98;;
55913;SDS011;58179;48.776;9.124;2022-08-19T01:25:07;23.48;;;16.70;;
55913;SDS011;58179;48.776;9.124;2022-08-19T01:27:36;20.88;;;16.17;;
55913;SDS011;58179;48.776;9.124;2022-08-19T01:30:05;22.27;;;16.58;;
55913;SDS011;58179;48.776;9.124;2022-08-19T01:32:33;22.73;;;16.63;;
55913;SDS011;58179;48.776;9.124;2022-08-19T01:35:00;21.55;;;15.00;;
55913;SDS011;58179;48.776;9.124;2022-08-19T01:37:27;20.67;;;15.45;;
55913;SDS011;58179;48.776;9.124;2022-08-19T01:39:55;22.38;;;16.20;;
55913;SDS011;58179;48.776;9.124;2022-08-19T01:42:21;20.63;;;16.33;;
55913;SDS011;58179;48.776;9.124;2022-08-19T01:44:47;25.05;;;17.15;;
55913;SDS011;58179;48.776;9.124;2022-08-19T01:47:13;24.95;;;17.05;;
55913;SDS011;58179;48.776;9.124;2022-08-19T01:49:41;23.00;;;16.95;;
55913;SDS011;58179;48.776;9.124;2022-08-19T01:52:07;24.30;;;17.65;;
55913;SDS011;58179;48.776;9.124;2022-08-19T01:54:33;23.33;;;16.70;;
55913;SDS011;58179;48.776;9.124;2022-08-19T01:57:06;20.98;;;16.08;;
55913;SDS011;58179;48.776;9.124;2022-08-19T01:59:37;23.02;;;17.27;;
55913;SDS011;58179;48.776;9.124;2022-08-19T02:02:04;26.75;;;17.60;;
55913;SDS011;58179;48.776;9.124;2022-08-19T02:04:32;24.05;;;16.45;;
55913;SDS011;58179;48.776;9.124;2022-08-19T02:06:59;22.55;;;16.60;;
55913;SDS011;58179;48.776;9.124;2022-08-19T02:09:25;24.17;;;17.57;;
55913;SDS011;58179;48.776;9.124;2022-08-19T02:11:51;23.23;;;16.80;;
55913;SDS011;58179;48.776;9.124;2022-08-19T02:14:18;25.35;;;17.90;;
55913;SDS011;58179;48.776;9.124;2022-08-19T02:16:44;24.30;;;18.10;;
55913;SDS011;58179;48.776;9.124;2022-08-19T02:19:10;27.77;;;18.10;;
55913;SDS011;58179;48.776;9.124;2022-08-19T02:21:36;29.75;;;20.25;;
55913;SDS011;58179;48.776;9.124;2022-08-19T02:24:02;27.67;;;19.05;;
55913;SDS011;58179;48.776;9.124;2022-08-19T02:26:29;30.00;;;20.70;;
55913;SDS011;58179;48.776;9.124;2022-08-19T02:28:56;27.00;;;18.67;;
55913;SDS011;58179;48.776;9.124;2022-08-19T02:31:24;26.75;;;18.83;;
55913;SDS011;58179;48.776;9.124;2022-08-19T02:33:53;34.08;;;21.05;;
55913;SDS011;58179;48.776;9.124;2022-08-19T02:36:20;29.58;;;20.48;;
55913;SDS011;58179;48.776;9.124;2022-08-19T02:38:46;28.55;;;20.55;;
55913;SDS011;58179;48.776;9.124;2022-08-19T02:41:13;26.23;;;18.77;;
55913;SDS011;58179;48.776;9.124;2022-08-19T02:43:43;27.20;;;20.58;;
55913;SDS011;58179;48.776;9.124;2022-08-19T02:46:12;31.92;;;21.15;;
55913;SDS011;58179;48.776;9.124;2022-08-19T02:48:44;25.67;;;18.98;;
55913;SDS011;58179;48.776;9.124;2022-08-19T02:51:15;32.15;;;21.83;;
55913;SDS011;58179;48.776;9.124;2022-08-19T02:53:42;26.35;;;19.15;;
55913;SDS011;58179;48.776;9.124;2022-08-19T02:56:09;29.00;;;19.60;;
55913;SDS011;58179;48.776;9.124;2022-08-19T02:58:35;31.08;;;20.85;;
55913;SDS011;58179;48.776;9.124;2022-08-19T03:01:01;26.90;;;18.15;;
55913;SDS011;58179;48.776;9.124;2022-08-19T03:03:27;29.52;;;20.10;;
55913;SDS011;58179;48.776;9.124;2022-08-19T03:06:04;30.67;;;21.83;;
55913;SDS011;58179;48.776;9.124;2022-08-19T03:08:33;30.58;;;21.45;;
55913;SDS011;58179;48.776;9.124;2022-08-19T03:10:59;30.15;;;21.48;;
55913;SDS011;58179;48.776;9.124;2022-08-19T03:13:25;32.05;;;22.00;;
55913;SDS011;58179;48.776;9.124;2022-08-19T03:15:53;30.83;;;21.27;;
55913;SDS011;58179;48.776;9.124;2022-08-19T03:18:19;33.20;;;22.75;;
55913;SDS011;58179;48.776;9.124;2022-08-19T03:20:47;31.15;;;22.02;;
55913;SDS011;58179;48.776;9.124;2022-08-19T03:23:16;31.15;;;21.20;;
55913;SDS011;58179;48.776;9.124;2022-08-19T03:25:43;28.58;;;20.90;;
55913;SDS011;58179;48.776;9.124;2022-08-19T03:28:12;27.23;;;20.38;;
55913;SDS011;58179;48.776;9.124;2022-08-19T03:30:40;32.03;;;21.63;;
55913;SDS011;58179;48.776;9.124;2022-08-19T03:33:09;29.25;;;21.33;;
55913;SDS011;58179;48.776;9.124;2022-08-19T03:35:38;30.23;;;20.98;;
55913;SDS011;58179;48.776;9.124;2022-08-19T03:38:04;29.43;;;21.93;;
55913;SDS011;58179;48.776;9.124;2022-08-19T03:40:35;35.17;;;23.70;;
55913;SDS011;58179;48.776;9.124;2022-08-19T03:43:02;29.67;;;21.98;;
55913;SDS011;58179;48.776;9.124;2022-08-19T03:45:28;34.08;;;23.85;;
55913;SDS011;58179;48.776;9.124;2022-08-19T03:47:54;34.75;;;23.15;;
55913;SDS011;58179;48.776;9.124;2022-08-19T03:50:20;37.90;;;25.13;;
55913;SDS011;58179;48.776;9.124;2022-08-19T03:52:47;36.53;;;24.77;;
55913;SDS011;58179;48.776;9.124;2022-08-19T03:55:15;35.83;;;25.02;;
55913;SDS011;58179;48.776;9.124;2022-08-19T03:57:42;35.20;;;24.50;;
55913;SDS011;58179;48.776;9.124;2022-08-19T04:00:11;35.35;;;24.73;;
55913;SDS011;58179;48.776;9.124;2022-08-19T04:02:38;35.38;;;23.98;;
55913;SDS011;58179;48.776;9.124;2022-08-19T04:05:04;41.70;;;27.13;;
55913;SDS011;58179;48.776;9.124;2022-08-19T04:07:33;37.37;;;26.30;;
55913;SDS011;58179;48.776;9.124;2022-08-19T04:09:59;39.80;;;26.15;;
55913;SDS011;58179;48.776;9.124;2022-08-19T04:12:25;32.80;;;24.20;;
55913;SDS011;58179;48.776;9.124;2022-08-19T04:14:53;37.35;;;26.63;;
55913;SDS011;58179;48.776;9.124;2022-08-19T04:17:19;39.33;;;25.67;;
55913;SDS011;58179;48.776;9.124;2022-08-19T04:19:45;37.42;;;27.23;;
55913;SDS011;58179;48.776;9.124;2022-08-19T04:22:11;38.10;;;25.08;;
55913;SDS011;58179;48.776;9.124;2022-08-19T04:24:37;44.00;;;27.10;;
55913;SDS011;58179;48.776;9.124;2022-08-19T04:27:03;35.20;;;24.97;;
55913;SDS011;58179;48.776;9.124;2022-08-19T04:29:31;45.70;;;28.00;;
55913;SDS011;58179;48.776;9.124;2022-08-19T04:31:58;44.33;;;29.92;;
55913;SDS011;58179;48.776;9.124;2022-08-19T04:34:25;36.45;;;25.42;;
55913;SDS011;58179;48.776;9.124;2022-08-19T04:36:55;38.33;;;26.00;;
55913;SDS011;58179;48.776;9.124;2022-08-19T04:39:24;39.53;;;27.42;;
55913;SDS011;58179;48.776;9.124;2022-08-19T04:42:13;41.58;;;27.98;;
55913;SDS011;58179;48.776;9.124;2022-08-19T04:44:58;35.80;;;26.13;;
55913;SDS011;58179;48.776;9.124;2022-08-19T04:47:26;42.33;;;27.58;;
55913;SDS011;58179;48.776;9.124;2022-08-19T04:49:52;40.10;;;28.75;;
55913;SDS011;58179;48.776;9.124;2022-08-19T04:52:18;41.97;;;28.67;;
55913;SDS011;58179;48.776;9.124;2022-08-19T04:54:44;42.00;;;27.73;;
55913;SDS011;58179;48.776;9.124;2022-08-19T04:57:10;39.90;;;26.80;;
55913;SDS011;58179;48.776;9.124;2022-08-19T04:59:36;38.93;;;25.57;;
55913;SDS011;58179;48.776;9.124;2022-08-19T05:02:04;36.58;;;26.15;;
55913;SDS011;58179;48.776;9.124;2022-08-19T05:04:33;40.00;;;27.23;;
55913;SDS011;58179;48.776;9.124;2022-08-19T05:07:00;40.13;;;27.33;;
55913;SDS011;58179;48.776;9.124;2022-08-19T05:09:26;35.75;;;24.92;;
55913;SDS011;58179;48.776;9.124;2022-08-19T05:11:52;40.17;;;26.38;;
55913;SDS011;58179;48.776;9.124;2022-08-19T05:14:18;41.80;;;26.40;;
55913;SDS011;58179;48.776;9.124;2022-08-19T05:16:45;37.33;;;27.17;;
55913;SDS011;58179;48.776;9.124;2022-08-19T05:19:12;36.33;;;25.00;;
55913;SDS011;58179;48.776;9.124;2022-08-19T05:21:58;42.35;;;27.52;;
55913;SDS011;58179;48.776;9.124;2022-08-19T05:24:43;38.22;;;25.40;;
55913;SDS011;58179;48.776;9.124;2022-08-19T05:27:09;42.38;;;27.40;;
55913;SDS011;58179;48.776;9.124;2022-08-19T05:29:35;35.97;;;26.45;;
55913;SDS011;58179;48.776;9.124;2022-08-19T05:32:03;30.80;;;22.50;;
55913;SDS011;58179;48.776;9.124;2022-08-19T05:34:33;33.42;;;23.67;;
55913;SDS011;58179;48.776;9.124;2022-08-19T05:37:01;35.47;;;25.13;;
55913;SDS011;58179;48.776;9.124;2022-08-19T05:39:28;36.70;;;25.42;;
55913;SDS011;58179;48.776;9.124;2022-08-19T05:41:57;36.23;;;26.40;;
55913;SDS011;58179;48.776;9.124;2022-08-19T05:44:26;34.53;;;24.57;;
55913;SDS011;58179;48.776;9.124;2022-08-19T05:46:56;33.42;;;24.40;;
55913;SDS011;58179;48.776;9.124;2022-08-19T05:49:23;37.83;;;25.55;;
55913;SDS011;58179;48.776;9.124;2022-08-19T05:51:50;36.05;;;24.15;;
55913;SDS011;58179;48.776;9.124;2022-08-19T05:54:18;34.40;;;24.67;;
55913;SDS011;58179;48.776;9.124;2022-08-19T05:56:44;37.00;;;25.77;;
55913;SDS011;58179;48.776;9.124;2022-08-19T05:59:12;35.63;;;24.25;;
55913;SDS011;58179;48.776;9.124;2022-08-19T06:01:41;33.25;;;23.08;;
55913;SDS011;58179;48.776;9.124;2022-08-19T06:04:11;38.15;;;25.90;;
55913;SDS011;58179;48.776;9.124;2022-08-19T06:06:38;34.05;;;24.92;;
55913;SDS011;58179;48.776;9.124;2022-08-19T06:09:06;35.33;;;25.10;;
55913;SDS011;58179;48.776;9.124;2022-08-19T06:11:35;35.72;;;25.13;;
55913;SDS011;58179;48.776;9.124;2022-08-19T06:14:05;34.72;;;24.98;;
55913;SDS011;58179;48.776;9.124;2022-08-19T06:16:34;37.43;;;24.47;;
55913;SDS011;58179;48.776;9.124;2022-08-19T06:19:01;30.48;;;21.80;;
55913;SDS011;58179;48.776;9.124;2022-08-19T06:21:31;34.53;;;25.25;;
55913;SDS011;58179;48.776;9.124;2022-08-19T06:23:58;35.13;;;24.20;;
55913;SDS011;58179;48.776;9.124;2022-08-19T06:26:24;35.10;;;24.40;;
55913;SDS011;58179;48.776;9.124;2022-08-19T06:28:52;36.45;;;24.88;;
55913;SDS011;58179;48.776;9.124;2022-08-19T06:31:20;37.20;;;25.33;;
55913;SDS011;58179;48.776;9.124;2022-08-19T06:33:49;36.10;;;25.67;;
55913;SDS011;58179;48.776;9.124;2022-08-19T06:36:16;35.35;;;24.63;;
55913;SDS011;58179;48.776;9.124;2022-08-19T06:38:44;35.30;;;23.97;;
55913;SDS011;58179;48.776;9.124;2022-08-19T06:41:10;31.05;;;22.38;;
55913;SDS011;58179;48.776;9.124;2022-08-19T06:43:36;31.23;;;23.55;;
55913;SDS011;58179;48.776;9.124;2022-08-19T06:46:04;29.00;;;22.88;;
55913;SDS011;58179;48.776;9.124;2022-08-19T06:48:36;32.70;;;23.60;;
55913;SDS011;58179;48.776;9.124;2022-08-19T06:51:02;33.22;;;23.95;;
55913;SDS011;58179;48.776;9.124;2022-08-19T06:53:30;37.72;;;24.33;;
55913;SDS011;58179;48.776;9.124;2022-08-19T06:55:56;35.63;;;24.58;;
55913;SDS011;58179;48.776;9.124;2022-08-19T06:58:27;34.67;;;23.88;;
55913;SDS011;58179;48.776;9.124;2022-08-19T07:00:57;35.78;;;25.20;;
55913;SDS011;58179;48.776;9.124;2022-08-19T07:03:27;35.88;;;25.98;;
55913;SDS011;58179;48.776;9.124;2022-08-19T07:05:56;35.33;;;25.30;;
55913;SDS011;58179;48.776;9.124;2022-08-19T07:08:22;34.13;;;25.23;;
55913;SDS011;58179;48.776;9.124;2022-08-19T07:10:51;31.77;;;24.17;;
55913;SDS011;58179;48.776;9.124;2022-08-19T07:13:18;36.67;;;24.60;;
55913;SDS011;58179;48.776;9.124;2022-08-19T07:15:44;33.03;;;23.87;;
55913;SDS011;58179;48.776;9.124;2022-08-19T07:18:11;32.40;;;23.92;;
55913;SDS011;58179;48.776;9.124;2022-08-19T07:20:39;34.35;;;25.05;;
55913;SDS011;58179;48.776;9.124;2022-08-19T07:23:06;36.10;;;26.55;;
55913;SDS011;58179;48.776;9.124;2022-08-19T07:25:32;35.45;;;25.60;;
55913;SDS011;58179;48.776;9.124;2022-08-19T07:28:00;33.10;;;24.33;;
55913;SDS011;58179;48.776;9.124;2022-08-19T07:30:27;35.15;;;25.25;;
55913;SDS011;58179;48.776;9.124;2022-08-19T07:32:53;32.83;;;23.92;;
55913;SDS011;58179;48.776;9.124;2022-08-19T07:35:19;32.47;;;24.35;;
55913;SDS011;58179;48.776;9.124;2022-08-19T07:37:46;31.63;;;22.53;;
55913;SDS011;58179;48.776;9.124;2022-08-19T07:40:12;32.78;;;23.67;;
55913;SDS011;58179;48.776;9.124;2022-08-19T07:42:39;32.05;;;22.85;;
55913;SDS011;58179;48.776;9.124;2022-08-19T07:45:06;31.95;;;22.75;;
55913;SDS011;58179;48.776;9.124;2022-08-19T07:47:34;32.83;;;24.40;;
55913;SDS011;58179;48.776;9.124;2022-08-19T07:50:00;33.17;;;24.85;;
55913;SDS011;58179;48.776;9.124;2022-08-19T07:52:29;30.30;;;22.25;;
55913;SDS011;58179;48.776;9.124;2022-08-19T07:54:56;33.75;;;23.70;;
55913;SDS011;58179;48.776;9.124;2022-08-19T07:57:24;33.63;;;24.08;;
55913;SDS011;58179;48.776;9.124;2022-08-19T07:59:50;28.45;;;22.33;;
55913;SDS011;58179;48.776;9.124;2022-08-19T08:02:16;34.17;;;24.33;;
55913;SDS011;58179;48.776;9.124;2022-08-19T08:04:42;38.45;;;25.38;;
55913;SDS011;58179;48.776;9.124;2022-08-19T08:07:27;31.02;;;22.95;;
55913;SDS011;58179;48.776;9.124;2022-08-19T08:10:13;29.43;;;22.93;;
55913;SDS011;58179;48.776;9.124;2022-08-19T08:12:39;33.00;;;21.95;;
55913;SDS011;58179;48.776;9.124;2022-08-19T08:15:07;32.35;;;22.52;;
55913;SDS011;58179;48.776;9.124;2022-08-19T08:17:38;27.60;;;19.83;;
55913;SDS011;58179;48.776;9.124;2022-08-19T08:20:04;32.58;;;21.35;;
55913;SDS011;58179;48.776;9.124;2022-08-19T08:22:32;29.10;;;21.90;;
55913;SDS011;58179;48.776;9.124;2022-08-19T08:25:19;30.10;;;22.08;;
55913;SDS011;58179;48.776;9.124;2022-08-19T08:27:48;32.28;;;21.65;;
55913;SDS011;58179;48.776;9.124;2022-08-19T08:30:15;27.77;;;21.55;;
55913;SDS011;58179;48.776;9.124;2022-08-19T08:32:46;27.15;;;20.73;;
55913;SDS011;58179;48.776;9.124;2022-08-19T08:35:13;30.58;;;21.08;;
55913;SDS011;58179;48.776;9.124;2022-08-19T08:37:41;26.90;;;20.77;;
55913;SDS011;58179;48.776;9.124;2022-08-19T08:40:10;30.73;;;21.90;;
55913;SDS011;58179;48.776;9.124;2022-08-19T08:42:47;30.35;;;21.88;;
55913;SDS011;58179;48.776;9.124;2022-08-19T08:45:25;27.33;;;19.35;;
55913;SDS011;58179;48.776;9.124;2022-08-19T08:47:51;29.65;;;20.65;;
55913;SDS011;58179;48.776;9.124;2022-08-19T08:50:23;28.27;;;20.45;;
55913;SDS011;58179;48.776;9.124;2022-08-19T08:52:57;27.67;;;19.60;;
55913;SDS011;58179;48.776;9.124;2022-08-19T08:55:26;34.55;;;22.70;;
55913;SDS011;58179;48.776;9.124;2022-08-19T08:57:55;29.60;;;21.30;;
55913;SDS011;58179;48.776;9.124;2022-08-19T09:00:26;28.13;;;21.08;;
55913;SDS011;58179;48.776;9.124;2022-08-19T09:02:55;26.35;;;19.42;;
55913;SDS011;58179;48.776;9.124;2022-08-19T09:05:25;30.73;;;20.45;;
55913;SDS011;58179;48.776;9.124;2022-08-19T09:08:04;33.33;;;20.75;;
55913;SDS011;58179;48.776;9.124;2022-08-19T09:10:40;28.45;;;20.98;;
55913;SDS011;58179;48.776;9.124;2022-08-19T09:13:15;26.90;;;20.27;;
55913;SDS011;58179;48.776;9.124;2022-08-19T09:15:52;26.50;;;19.55;;
55913;SDS011;58179;48.776;9.124;2022-08-19T09:18:27;29.20;;;20.30;;
55913;SDS011;58179;48.776;9.124;2022-08-19T09:21:07;27.23;;;19.58;;
55913;SDS011;58179;48.776;9.124;2022-08-19T09:23:33;26.42;;;19.15;;
55913;SDS011;58179;48.776;9.124;2022-08-19T09:26:01;25.65;;;18.33;;
55913;SDS011;58179;48.776;9.124;2022-08-19T09:28:34;30.70;;;19.60;;
55913;SDS011;58179;48.776;9.124;2022-08-19T09:31:02;27.75;;;19.60;;
55913;SDS011;58179;48.776;9.124;2022-08-19T09:33:28;27.08;;;17.95;;
55913;SDS011;58179;48.776;9.124;2022-08-19T09:36:01;28.97;;;18.20;;
55913;SDS011;58179;48.776;9.124;2022-08-19T09:38:29;37.40;;;19.33;;
55913;SDS011;58179;48.776;9.124;2022-08-19T09:40:55;27.57;;;18.70;;
55913;SDS011;58179;48.776;9.124;2022-08-19T09:43:22;26.97;;;18.27;;
55913;SDS011;58179;48.776;9.124;2022-08-19T09:45:48;22.80;;;17.00;;
55913;SDS011;58179;48.776;9.124;2022-08-19T09:48:14;20.10;;;15.48;;
55913;SDS011;58179;48.776;9.124;2022-08-19T09:50:40;27.52;;;17.50;;
55913;SDS011;58179;48.776;9.124;2022-08-19T09:53:06;24.60;;;15.95;;
55913;SDS011;58179;48.776;9.124;2022-08-19T09:55:32;21.43;;;15.40;;
55913;SDS011;58179;48.776;9.124;2022-08-19T09:57:59;25.30;;;15.17;;
55913;SDS011;58179;48.776;9.124;2022-08-19T10:00:27;26.00;;;14.88;;
55913;SDS011;58179;48.776;9.124;2022-08-19T10:02:53;19.35;;;14.50;;
55913;SDS011;58179;48.776;9.124;2022-08-19T10:05:19;23.65;;;15.60;;
55913;SDS011;58179;48.776;9.124;2022-08-19T10:08:04;22.13;;;15.45;;
55913;SDS011;58179;48.776;9.124;2022-08-19T10:10:30;17.92;;;13.52;;
55913;SDS011;58179;48.776;9.124;2022-08-19T10:13:00;25.08;;;15.88;;
55913;SDS011;58179;48.776;9.124;2022-08-19T10:15:28;21.67;;;15.37;;
55913;SDS011;58179;48.776;9.124;2022-08-19T10:17:54;21.20;;;14.02;;
55913;SDS011;58179;48.776;9.124;2022-08-19T10:20:20;20.00;;;14.32;;
55913;SDS011;58179;48.776;9.124;2022-08-19T10:22:47;20.08;;;13.30;;
55913;SDS011;58179;48.776;9.124;2022-08-19T10:25:13;19.77;;;14.02;;
55913;SDS011;58179;48.776;9.124;2022-08-19T10:27:41;23.38;;;14.57;;
55913;SDS011;58179;48.776;9.124;2022-08-19T10:30:08;19.33;;;13.57;;
55913;SDS011;58179;48.776;9.124;2022-08-19T10:32:36;18.15;;;13.30;;
55913;SDS011;58179;48.776;9.124;2022-08-19T10:35:03;22.38;;;13.45;;
55913;SDS011;58179;48.776;9.124;2022-08-19T10:37:33;17.13;;;12.03;;
55913;SDS011;58179;48.776;9.124;2022-08-19T10:39:59;19.77;;;12.77;;
55913;SDS011;58179;48.776;9.124;2022-08-19T10:42:26;21.83;;;13.87;;
55913;SDS011;58179;48.776;9.124;2022-08-19T10:44:52;18.85;;;12.23;;
55913;SDS011;58179;48.776;9.124;2022-08-19T10:47:18;18.15;;;11.82;;
55913;SDS011;58179;48.776;9.124;2022-08-19T10:49:46;20.20;;;12.67;;
55913;SDS011;58179;48.776;9.124;2022-08-19T10:52:32;16.98;;;11.30;;
55913;SDS011;58179;48.776;9.124;2022-08-19T10:54:58;14.35;;;10.95;;
55913;SDS011;58179;48.776;9.124;2022-08-19T10:57:43;16.27;;;10.87;;
55913;SDS011;58179;48.776;9.124;2022-08-19T11:00:09;16.23;;;10.18;;
55913;SDS011;58179;48.776;9.124;2022-08-19T11:02:38;16.38;;;10.25;;
55913;SDS011;58179;48.776;9.124;2022-08-19T11:05:06;14.77;;;10.40;;
55913;SDS011;58179;48.776;9.124;2022-08-19T11:07:35;19.73;;;11.60;;
55913;SDS011;58179;48.776;9.124;2022-08-19T11:10:03;14.50;;;10.07;;
55913;SDS011;58179;48.776;9.124;2022-08-19T11:12:30;17.98;;;10.80;;
55913;SDS011;58179;48.776;9.124;2022-08-19T11:14:56;17.10;;;10.98;;
55913;SDS011;58179;48.776;9.124;2022-08-19T11:17:22;13.52;;;10.52;;
55913;SDS011;58179;48.776;9.124;2022-08-19T11:19:48;15.02;;;11.07;;
55913;SDS011;58179;48.776;9.124;2022-08-19T11:22:15;16.30;;;10.52;;
55913;SDS011;58179;48.776;9.124;2022-08-19T11:24:42;21.42;;;12.60;;
55913;SDS011;58179;48.776;9.124;2022-08-19T11:27:08;19.47;;;11.90;;
55913;SDS011;58179;48.776;9.124;2022-08-19T11:29:35;14.27;;;10.10;;
55913;SDS011;58179;48.776;9.124;2022-08-19T11:32:03;15.23;;;10.85;;
55913;SDS011;58179;48.776;9.124;2022-08-19T11:34:31;12.07;;;9.23;;
55913;SDS011;58179;48.776;9.124;2022-08-19T11:36:58;13.80;;;10.70;;
55913;SDS011;58179;48.776;9.124;2022-08-19T11:39:26;15.65;;;10.77;;
55913;SDS011;58179;48.776;9.124;2022-08-19T11:41:55;12.38;;;9.52;;
55913;SDS011;58179;48.776;9.124;2022-08-19T11:44:23;15.95;;;10.93;;
55913;SDS011;58179;48.776;9.124;2022-08-19T11:46:49;11.25;;;8.30;;
55913;SDS011;58179;48.776;9.124;2022-08-19T11:49:17;13.80;;;9.32;;
55913;SDS011;58179;48.776;9.124;2022-08-19T11:51:44;13.13;;;9.15;;
55913;SDS011;58179;48.776;9.124;2022-08-19T11:54:11;13.02;;;8.80;;
55913;SDS011;58179;48.776;9.124;2022-08-19T11:56:40;18.20;;;9.83;;
55913;SDS011;58179;48.776;9.124;2022-08-19T11:59:07;11.60;;;8.82;;
55913;SDS011;58179;48.776;9.124;2022-08-19T12:01:35;15.38;;;9.80;;
55913;SDS011;58179;48.776;9.124;2022-08-19T12:04:01;13.23;;;8.68;;
55913;SDS011;58179;48.776;9.124;2022-08-19T12:06:31;12.50;;;8.82;;
55913;SDS011;58179;48.776;9.124;2022-08-19T12:08:59;13.68;;;9.02;;
55913;SDS011;58179;48.776;9.124;2022-08-19T12:11:28;13.13;;;8.73;;
55913;SDS011;58179;48.776;9.124;2022-08-19T12:13:56;11.60;;;8.30;;
55913;SDS011;58179;48.776;9.124;2022-08-19T12:16:23;15.60;;;9.43;;
55913;SDS011;58179;48.776;9.124;2022-08-19T12:18:51;16.77;;;9.95;;
55913;SDS011;58179;48.776;9.124;2022-08-19T12:21:20;11.77;;;8.70;;
55913;SDS011;58179;48.776;9.124;2022-08-19T12:23:50;13.63;;;9.50;;
55913;SDS011;58179;48.776;9.124;2022-08-19T12:26:17;13.70;;;8.90;;
55913;SDS011;58179;48.776;9.124;2022-08-19T12:28:43;10.60;;;8.73;;
55913;SDS011;58179;48.776;9.124;2022-08-19T12:31:11;14.18;;;8.93;;
55913;SDS011;58179;48.776;9.124;2022-08-19T12:33:37;17.45;;;9.43;;
55913;SDS011;58179;48.776;9.124;2022-08-19T12:36:04;10.35;;;7.95;;
55913;SDS011;58179;48.776;9.124;2022-08-19T12:38:33;11.53;;;7.43;;
55913;SDS011;58179;48.776;9.124;2022-08-19T12:40:59;11.00;;;7.50;;
55913;SDS011;58179;48.776;9.124;2022-08-19T12:43:25;11.85;;;7.80;;
55913;SDS011;58179;48.776;9.124;2022-08-19T12:45:52;14.27;;;8.57;;
55913;SDS011;58179;48.776;9.124;2022-08-19T12:48:19;11.20;;;8.23;;
55913;SDS011;58179;48.776;9.124;2022-08-19T12:50:45;11.57;;;8.13;;
55913;SDS011;58179;48.776;9.124;2022-08-19T12:53:11;10.48;;;8.05;;
55913;SDS011;58179;48.776;9.124;2022-08-19T12:55:38;11.82;;;7.80;;
55913;SDS011;58179;48.776;9.124;2022-08-19T12:58:05;8.80;;;7.45;;
55913;SDS011;58179;48.776;9.124;2022-08-19T13:00:31;10.93;;;7.63;;
55913;SDS011;58179;48.776;9.124;2022-08-19T13:02:59;8.65;;;6.72;;
55913;SDS011;58179;48.776;9.124;2022-08-19T13:05:27;9.05;;;6.78;;
55913;SDS011;58179;48.776;9.124;2022-08-19T13:07:56;11.75;;;7.40;;
55913;SDS011;58179;48.776;9.124;2022-08-19T13:10:25;11.27;;;7.60;;
55913;SDS011;58179;48.776;9.124;2022-08-19T13:12:55;9.15;;;6.65;;
55913;SDS011;58179;48.776;9.124;2022-08-19T13:15:22;12.35;;;7.13;;
55913;SDS011;58179;48.776;9.124;2022-08-19T13:17:49;11.20;;;7.32;;
55913;SDS011;58179;48.776;9.124;2022-08-19T13:20:18;10.20;;;6.68;;
55913;SDS011;58179;48.776;9.124;2022-08-19T13:22:47;11.02;;;7.43;;
55913;SDS011;58179;48.776;9.124;2022-08-19T13:25:14;11.90;;;7.97;;
55913;SDS011;58179;48.776;9.124;2022-08-19T13:27:43;13.88;;;9.02;;
55913;SDS011;58179;48.776;9.124;2022-08-19T13:30:10;15.07;;;10.23;;
55913;SDS011;58179;48.776;9.124;2022-08-19T13:32:58;13.33;;;8.60;;
55913;SDS011;58179;48.776;9.124;2022-08-19T13:35:36;14.98;;;10.65;;
55913;SDS011;58179;48.776;9.124;2022-08-19T13:38:04;16.10;;;9.70;;
55913;SDS011;58179;48.776;9.124;2022-08-19T13:40:32;16.52;;;11.48;;
55913;SDS011;58179;48.776;9.124;2022-08-19T13:42:59;16.35;;;11.43;;
55913;SDS011;58179;48.776;9.124;2022-08-19T13:45:27;18.53;;;12.13;;
55913;SDS011;58179;48.776;9.124;2022-08-19T13:47:55;20.38;;;11.32;;
55913;SDS011;58179;48.776;9.124;2022-08-19T13:50:23;20.70;;;13.38;;
55913;SDS011;58179;48.776;9.124;2022-08-19T13:52:51;22.92;;;15.07;;
55913;SDS011;58179;48.776;9.124;2022-08-19T13:55:19;21.65;;;15.75;;
55913;SDS011;58179;48.776;9.124;2022-08-19T13:57:49;27.17;;;18.88;;
55913;SDS011;58179;48.776;9.124;2022-08-19T14:00:16;33.53;;;21.45;;
55913;SDS011;58179;48.776;9.124;2022-08-19T14:02:44;27.00;;;18.15;;
55913;SDS011;58179;48.776;9.124;2022-08-19T14:05:12;22.60;;;16.03;;
55913;SDS011;58179;48.776;9.124;2022-08-19T14:07:40;33.13;;;20.23;;
55913;SDS011;58179;48.776;9.124;2022-08-19T14:10:07;33.95;;;21.60;;
55913;SDS011;58179;48.776;9.124;2022-08-19T14:12:37;27.73;;;19.20;;
55913;SDS011;58179;48.776;9.124;2022-08-19T14:15:04;21.77;;;16.90;;
55913;SDS011;58179;48.776;9.124;2022-08-19T14:17:32;24.45;;;18.70;;
55913;SDS011;58179;48.776;9.124;2022-08-19T14:20:00;25.37;;;19.80;;
55913;SDS011;58179;48.776;9.124;2022-08-19T14:22:34;23.02;;;17.60;;
55913;SDS011;58179;48.776;9.124;2022-08-19T14:25:02;27.15;;;20.35;;
55913;SDS011;58179;48.776;9.124;2022-08-19T14:27:30;25.65;;;20.00;;
55913;SDS011;58179;48.776;9.124;2022-08-19T14:29:59;35.45;;;24.27;;